Time;durP1;ratioP1;P1;durP2;ratioP2;P2;SDS_P1;SDS_P2;PMS_P1;PMS_P2;Temp;Humidity;BMP_temperature;BMP_pressure;BME280_temperature;BME280_humidity;BME280_pressure;Samples;Min_cycle;Max_cycle;Signal;HPM_P1;HPM_P2
2023/03/16 06:02:33;;;;;;;;;2.00;2.00;;;;;10.07;46.84;67837.38;5001755;23;45997;-89
2023/03/16 06:04:58;;;;;;;;;2.33;2.33;;;;;8.93;47.13;67685.50;4993311;28;47911;-92
2023/03/16 06:07:24;;;;;;;;;3.33;2.00;;;;;10.20;46.61;67825.69;4994145;28;45807;-89
2023/03/16 06:09:49;;;;;;;;;2.00;2.00;;;;;9.85;46.89;67754.53;5229226;22;45397;-90
2023/03/16 06:12:14;;;;;;;;;1.00;1.00;;;;;10.28;46.75;67899.13;4978541;28;45355;-88
2023/03/16 06:14:40;;;;;;;;;2.00;2.00;;;;;10.27;46.85;67865.63;5330295;22;45608;-87
2023/03/16 06:17:05;;;;;;;;;2.00;2.00;;;;;9.55;46.84;67928.28;4979002;28;45533;-88
2023/03/16 06:19:30;;;;;;;;;1.33;1.00;;;;;9.13;47.11;67631.41;4996951;28;45327;-88
2023/03/16 06:21:56;;;;;;;;;3.33;2.33;;;;;10.31;46.70;67846.59;5012998;22;45774;-90
2023/03/16 06:24:21;;;;;;;;;1.00;1.00;;;;;10.29;46.41;67902.94;4977256;28;46229;-90
2023/03/16 06:26:46;;;;;;;;;2.00;2.00;;;;;10.14;46.72;67798.66;4977628;28;45460;-94
2023/03/16 06:29:12;;;;;;;;;2.00;2.00;;;;;9.68;46.31;67721.91;4976542;28;45485;-92
2023/03/16 06:31:37;;;;;;;;;2.00;2.00;;;;;10.25;46.82;67902.91;4987621;28;45505;-95
2023/03/16 06:34:03;;;;;;;;;1.00;1.00;;;;;9.82;46.27;67724.00;4994096;28;47017;-92
2023/03/16 06:36:28;;;;;;;;;0.00;0.00;;;;;9.29;46.70;67740.50;4973108;28;45557;-90
2023/03/16 06:38:53;;;;;;;;;2.00;2.00;;;;;9.30;46.60;67793.84;4975632;28;45627;-91
2023/03/16 06:41:20;;;;;;;;;1.00;1.00;;;;;9.88;46.46;67940.25;4980568;28;45502;-91
2023/03/16 06:43:45;;;;;;;;;3.67;2.00;;;;;9.98;46.52;67750.19;4960734;28;47269;-90
2023/03/16 06:46:10;;;;;;;;;3.00;1.67;;;;;9.99;46.56;67769.84;4982346;28;45537;-90
2023/03/16 06:48:36;;;;;;;;;3.67;2.67;;;;;10.19;46.44;67856.81;4977146;28;45803;-89
2023/03/16 06:51:01;;;;;;;;;3.00;3.00;;;;;10.04;46.32;67746.66;4977330;28;45718;-91
2023/03/16 06:53:26;;;;;;;;;3.67;2.67;;;;;10.50;46.11;67799.69;4978608;28;46320;-90
2023/03/16 06:55:52;;;;;;;;;2.00;2.00;;;;;10.40;46.22;67825.50;4971176;28;45561;-89
2023/03/16 06:58:17;;;;;;;;;2.00;2.00;;;;;10.25;46.43;67837.44;4976090;28;45570;-89
2023/03/16 07:00:42;;;;;;;;;2.00;2.00;;;;;10.26;46.19;67853.91;4971716;28;45403;-90
2023/03/16 07:03:08;;;;;;;;;1.67;1.67;;;;;10.28;46.35;67827.19;4975964;28;46983;-91
2023/03/16 07:05:33;;;;;;;;;4.67;2.00;;;;;10.03;46.04;67771.91;4951713;28;45510;-92
2023/03/16 07:07:58;;;;;;;;;4.00;2.00;;;;;9.63;45.96;67681.72;4980004;28;45706;-91
2023/03/16 07:10:24;;;;;;;;;2.00;2.00;;;;;10.09;46.21;67829.16;4970987;28;45436;-89
2023/03/16 07:12:50;;;;;;;;;3.33;2.00;;;;;9.82;45.95;67801.16;4955223;28;47363;-89
2023/03/16 07:15:15;;;;;;;;;2.00;2.00;;;;;9.29;46.11;67640.25;4957438;28;45693;-89
2023/03/16 07:17:41;;;;;;;;;2.67;2.67;;;;;9.37;45.71;67651.13;4964882;28;45341;-89
2023/03/16 07:20:09;;;;;;;;;1.00;1.00;;;;;10.66;45.63;67932.22;4975028;28;45492;-89
2023/03/16 07:22:36;;;;;;;;;2.00;2.00;;;;;9.73;45.33;67738.34;4973154;28;45423;-89
2023/03/16 07:25:01;;;;;;;;;1.00;1.00;;;;;10.35;45.62;67861.88;4974425;28;45463;-89
2023/03/16 07:27:28;;;;;;;;;2.00;1.00;;;;;9.88;45.62;67805.00;4958819;28;45555;-90
2023/03/16 07:29:53;;;;;;;;;1.00;1.00;;;;;10.55;45.43;68104.28;4978554;28;45378;-89
2023/03/16 07:32:20;;;;;;;;;2.00;1.00;;;;;10.87;45.54;67918.78;4980752;28;46092;-90
2023/03/16 07:34:46;;;;;;;;;1.00;1.00;;;;;9.88;45.23;67709.94;4977524;28;45795;-89
2023/03/16 07:37:11;;;;;;;;;1.67;1.67;;;;;9.95;44.79;67749.88;4972388;28;45716;-89
2023/03/16 07:39:37;;;;;;;;;1.00;1.00;;;;;11.07;44.98;67912.69;4979214;28;45340;-90
2023/03/16 07:42:03;;;;;;;;;2.00;2.00;;;;;9.93;45.22;67876.91;4960588;28;48677;-90
2023/03/16 07:44:29;;;;;;;;;3.67;2.00;;;;;10.70;44.82;67804.75;4974318;28;45450;-90
2023/03/16 07:46:54;;;;;;;;;2.00;2.00;;;;;10.99;44.84;67838.28;4978711;28;45479;-90
2023/03/16 07:49:20;;;;;;;;;2.00;1.00;;;;;10.54;44.49;67831.41;4961050;28;45624;-89
2023/03/16 07:51:45;;;;;;;;;3.00;3.00;;;;;11.35;44.59;67945.09;4979283;28;45506;-89
2023/03/16 07:54:11;;;;;;;;;2.00;2.00;;;;;10.90;44.60;67856.19;4975912;28;45390;-90
2023/03/16 07:56:36;;;;;;;;;3.33;2.67;;;;;11.16;44.04;67902.72;4978654;28;45500;-89
2023/03/16 07:59:02;;;;;;;;;2.00;2.00;;;;;11.46;43.96;67970.75;4981518;28;45459;-90
2023/03/16 08:01:28;;;;;;;;;2.00;2.00;;;;;11.38;44.15;67919.53;4956851;28;48858;-91
2023/03/16 08:03:53;;;;;;;;;2.00;2.00;;;;;11.18;44.32;68042.06;4982792;28;45435;-90
2023/03/16 08:06:20;;;;;;;;;1.00;1.00;;;;;11.16;44.08;67952.41;4978465;28;45818;-90
2023/03/16 08:08:46;;;;;;;;;1.00;1.00;;;;;10.89;43.76;68091.00;4962065;28;45692;-89
2023/03/16 08:11:11;;;;;;;;;3.33;2.00;;;;;11.36;43.69;67809.25;4978801;28;46113;-90
2023/03/16 08:13:37;;;;;;;;;3.00;1.00;;;;;11.52;43.56;67909.56;4994371;28;45470;-91
2023/03/16 08:16:04;;;;;;;;;2.00;2.00;;;;;10.98;43.66;67855.66;4998873;28;45308;-90
2023/03/16 08:18:30;;;;;;;;;3.00;1.33;;;;;11.17;43.37;67911.84;4981672;28;45598;-90
2023/03/16 08:20:56;;;;;;;;;3.00;1.00;;;;;11.87;44.14;67975.53;4991220;28;45416;-91
2023/03/16 08:23:23;;;;;;;;;2.00;2.00;;;;;11.85;43.87;68029.41;4978734;28;45504;-85
2023/03/16 08:25:52;;;;;;;;;1.00;1.00;;;;;11.91;44.56;67964.97;4977111;28;45692;-85
2023/03/16 08:28:20;;;;;;;;;2.33;1.67;;;;;12.00;44.31;67986.19;4978227;28;45439;-84
2023/03/16 08:30:50;;;;;;;;;4.00;1.67;;;;;12.11;43.83;68021.84;4978967;28;46284;-84
2023/03/16 08:33:19;;;;;;;;;4.00;2.00;;;;;12.16;44.07;67993.88;4977774;28;45555;-85
2023/03/16 08:35:46;;;;;;;;;2.00;2.00;;;;;12.07;43.65;67993.88;4961084;28;45603;-86
2023/03/16 08:38:13;;;;;;;;;3.33;2.67;;;;;12.30;43.73;67993.91;4978510;28;45503;-86
2023/03/16 08:40:40;;;;;;;;;4.00;3.00;;;;;12.35;43.56;67965.34;4961066;28;47625;-86
2023/03/16 08:43:06;;;;;;;;;2.00;2.00;;;;;12.40;43.65;67999.81;4965066;28;45716;-86
2023/03/16 08:45:32;;;;;;;;;2.00;2.00;;;;;12.08;43.92;67926.16;4975367;28;45363;-86
2023/03/16 08:47:58;;;;;;;;;3.00;2.00;;;;;12.34;43.28;67985.38;4978914;28;45372;-88
2023/03/16 08:50:24;;;;;;;;;3.67;2.67;;;;;12.76;43.66;68046.41;4978272;28;45438;-86
2023/03/16 08:52:49;;;;;;;;;3.00;3.00;;;;;12.34;43.07;67968.88;4960929;28;45416;-86
2023/03/16 08:55:15;;;;;;;;;3.00;2.00;;;;;12.75;43.43;68000.72;4979531;28;45539;-87
2023/03/16 08:57:43;;;;;;;;;1.33;1.33;;;;;12.65;44.44;67970.38;4979115;28;45372;-86
2023/03/16 09:00:13;;;;;;;;;3.00;3.00;;;;;12.83;42.99;68070.56;4978096;28;46035;-86
2023/03/16 09:02:40;;;;;;;;;1.00;1.00;;;;;13.00;43.60;68042.31;4959280;28;45716;-86
2023/03/16 09:05:10;;;;;;;;;2.00;1.33;;;;;12.97;43.03;68049.34;4974827;28;45480;-85
2023/03/16 09:07:36;;;;;;;;;0.67;0.67;;;;;12.42;42.93;67965.06;4977107;28;45452;-85
2023/03/16 09:10:04;;;;;;;;;1.67;1.67;;;;;12.69;43.04;68014.88;4977302;28;45456;-86
2023/03/16 09:12:31;;;;;;;;;1.67;1.67;;;;;13.48;42.60;68079.19;4977637;28;45531;-90
2023/03/16 09:14:56;;;;;;;;;1.67;1.67;;;;;13.50;42.63;68190.44;4970228;28;45258;-85
2023/03/16 09:17:21;;;;;;;;;3.33;2.00;;;;;12.92;41.77;68131.63;4981097;28;45477;-87
2023/03/16 09:19:47;;;;;;;;;2.67;1.67;;;;;13.33;42.01;68186.88;4959358;28;45904;-87
2023/03/16 09:22:12;;;;;;;;;1.00;1.00;;;;;13.68;42.04;68134.66;4975863;28;45599;-86
2023/03/16 09:24:38;;;;;;;;;2.00;2.00;;;;;13.88;42.65;68077.97;4975289;28;45689;-86
2023/03/16 09:27:04;;;;;;;;;2.67;2.67;;;;;13.23;41.76;67981.81;4978153;28;45309;-87
2023/03/16 09:29:29;;;;;;;;;2.00;2.00;;;;;14.27;42.32;68125.44;4995618;28;45896;-86
2023/03/16 09:31:54;;;;;;;;;3.00;3.00;;;;;13.92;42.19;68002.94;4992614;28;45442;-91
2023/03/16 09:34:20;;;;;;;;;2.00;2.00;;;;;14.23;41.18;68090.88;4965797;28;45365;-96
2023/03/16 09:36:46;;;;;;;;;3.33;1.67;;;;;14.50;41.12;68164.72;4969118;28;45473;-87
2023/03/16 09:39:12;;;;;;;;;3.00;1.67;;;;;14.65;40.95;68089.31;4977827;28;45331;-94
2023/03/16 09:41:41;;;;;;;;;1.00;1.00;;;;;14.88;40.32;68211.69;4978863;28;45466;-88
2023/03/16 09:44:09;;;;;;;;;2.00;2.00;;;;;14.97;40.53;68195.09;4978131;28;45376;-90
2023/03/16 09:46:41;;;;;;;;;2.00;2.00;;;;;14.58;40.39;68144.91;4978687;28;45348;-92
2023/03/16 09:49:19;;;;;;;;;2.00;1.00;;;;;15.13;40.33;68214.00;4959961;28;47256;-91
2023/03/16 09:52:05;;;;;;;;;1.00;1.00;;;;;14.89;40.13;68238.88;4979153;28;45403;-96
2023/03/16 09:54:58;;;;;;;;;0.33;0.33;;;;;15.36;39.98;68226.66;4980320;28;45462;-96
2023/03/16 09:57:34;;;;;;;;;1.00;1.00;;;;;15.82;39.97;68229.75;4969862;28;45638;-96
2023/03/16 10:00:21;;;;;;;;;1.00;1.00;;;;;16.22;39.16;68232.53;4980111;28;45571;-95
2023/03/16 10:02:55;;;;;;;;;1.00;1.00;;;;;16.59;39.13;68277.69;4989647;28;45533;-93
2023/03/16 10:05:23;;;;;;;;;1.67;1.00;;;;;17.09;37.98;68338.25;4977085;28;45690;-93
2023/03/16 10:08:11;;;;;;;;;0.67;0.67;;;;;17.31;37.12;68344.94;4961998;28;45810;-92
2023/03/16 10:11:08;;;;;;;;;2.00;2.00;;;;;17.99;36.90;68412.25;4968046;28;47893;-91
2023/03/16 10:13:33;;;;;;;;;1.67;1.67;;;;;18.59;36.20;68438.53;4963080;28;46023;-93
2023/03/16 10:16:04;;;;;;;;;2.00;2.00;;;;;18.76;34.98;68488.72;4975238;28;45489;-89
2023/03/16 10:18:37;;;;;;;;;2.00;1.00;;;;;18.77;34.06;68542.88;4978080;28;45498;-92
2023/03/16 10:21:04;;;;;;;;;1.00;1.00;;;;;19.13;35.04;68544.09;4977156;28;46316;-91
2023/03/16 10:23:34;;;;;;;;;1.00;1.00;;;;;20.06;34.88;68616.91;4979292;28;45512;-95
2023/03/16 10:26:01;;;;;;;;;2.00;2.00;;;;;20.21;34.00;68609.91;4975699;28;46390;-96
2023/03/16 10:28:31;;;;;;;;;1.00;1.00;;;;;20.50;32.97;68627.50;4962382;28;45500;-93
2023/03/16 10:30:59;;;;;;;;;1.00;1.00;;;;;21.56;32.49;68814.63;4976133;28;47353;-93
2023/03/16 10:33:31;;;;;;;;;2.00;2.00;;;;;21.65;31.70;68797.78;4974514;28;45522;-92
2023/03/16 10:36:09;;;;;;;;;2.00;2.00;;;;;22.52;31.28;68869.53;4983675;28;45362;-92
2023/03/16 10:38:54;;;;;;;;;0.75;0.75;;;;;22.96;30.54;68955.53;4965086;28;45444;-90
2023/03/16 10:41:28;;;;;;;;;1.25;1.25;;;;;23.44;29.15;68964.88;4975142;28;45432;-94
2023/03/16 10:44:10;;;;;;;;;2.00;2.00;;;;;23.85;30.00;68971.81;4959197;28;45293;-94
2023/03/16 10:46:38;;;;;;;;;2.00;1.00;;;;;24.00;28.71;68986.31;4965985;28;45279;-91
2023/03/16 10:49:03;;;;;;;;;1.00;1.00;;;;;24.01;28.38;68928.06;4990044;28;45474;-92
2023/03/16 10:51:36;;;;;;;;;1.50;1.50;;;;;24.64;28.84;69036.72;4989964;28;47235;-92
2023/03/16 10:54:15;;;;;;;;;0.75;0.75;;;;;24.88;28.75;69041.75;4977400;28;45387;-91
2023/03/16 10:56:40;;;;;;;;;2.50;1.00;;;;;24.78;27.51;68977.00;4957719;28;45468;-90
2023/03/16 10:59:30;;;;;;;;;1.25;1.25;;;;;25.10;27.81;69034.78;4968338;28;45395;-90
2023/03/16 11:01:57;;;;;;;;;1.25;1.25;;;;;24.63;28.12;69105.84;4966482;28;45491;-91
2023/03/16 11:04:23;;;;;;;;;1.00;1.00;;;;;25.06;27.26;69055.00;4969786;28;45430;-86
2023/03/16 11:06:55;;;;;;;;;1.25;1.00;;;;;25.36;27.80;69086.72;5000842;28;45508;-90
2023/03/16 11:09:31;;;;;;;;;2.00;2.00;;;;;25.99;27.27;69021.47;5001267;28;45462;-89
2023/03/16 11:11:57;;;;;;;;;3.00;1.75;;;;;26.69;26.69;68943.19;4983509;28;46456;-90
2023/03/16 11:14:27;;;;;;;;;1.75;1.25;;;;;27.06;26.01;68920.03;4979314;28;45633;-89
2023/03/16 11:17:04;;;;;;;;;2.00;2.00;;;;;28.14;26.25;68906.75;4980724;28;45424;-87
2023/03/16 11:22:11;;;;;;;;;1.50;1.25;;;;;28.50;23.88;68801.16;5299248;22;74235;-92
2023/03/16 11:24:41;;;;;;;;;3.00;2.00;;;;;28.28;24.38;68854.66;4958721;28;45454;-91
2023/03/16 11:27:34;;;;;;;;;1.00;1.00;;;;;28.26;24.69;68787.06;4979508;28;46345;-88
2023/03/16 11:30:18;;;;;;;;;2.00;2.00;;;;;28.65;24.22;68866.66;4965720;28;45805;-92
2023/03/16 11:32:52;;;;;;;;;2.75;1.50;;;;;28.90;23.39;68754.00;4956267;28;47546;-92
2023/03/16 11:35:56;;;;;;;;;1.25;1.25;;;;;29.50;23.32;68662.13;4979255;28;45414;-93
2023/03/16 11:38:53;;;;;;;;;1.00;1.00;;;;;29.69;23.07;68572.16;4979109;28;45272;-87
2023/03/16 11:41:43;;;;;;;;;1.00;1.00;;;;;30.72;22.24;68469.63;4977692;28;45737;-87
2023/03/16 11:44:14;;;;;;;;;1.00;1.00;;;;;31.34;21.64;68310.97;4977594;28;45523;-87
2023/03/16 11:47:04;;;;;;;;;2.75;1.00;;;;;31.52;21.31;68326.56;4976397;28;45415;-88
2023/03/16 11:50:13;;;;;;;;;2.00;2.00;;;;;31.61;21.56;68276.34;4978896;28;45405;-87
2023/03/16 11:53:17;;;;;;;;;3.00;1.50;;;;;31.87;20.36;68278.19;4970299;28;45628;-89
2023/03/16 11:56:02;;;;;;;;;1.50;1.50;;;;;31.95;20.39;68266.22;4968567;28;46720;-87
2023/03/16 11:58:46;;;;;;;;;1.25;1.25;;;;;32.15;20.30;68263.78;4978250;28;45554;-87
2023/03/16 12:01:35;;;;;;;;;2.00;1.50;;;;;31.91;20.12;68242.41;4987842;28;45432;-86
2023/03/16 12:04:29;;;;;;;;;2.00;1.00;;;;;31.90;20.72;68284.97;4977214;28;45614;-88
2023/03/16 12:06:58;;;;;;;;;1.00;1.00;;;;;31.59;20.24;68448.97;4975205;28;45759;-88
2023/03/16 12:09:51;;;;;;;;;1.00;1.00;;;;;31.16;20.84;68587.72;4979205;28;45380;-87
2023/03/16 12:12:55;;;;;;;;;3.25;1.00;;;;;30.98;20.54;68632.75;4978775;28;45449;-87
2023/03/16 12:15:41;;;;;;;;;2.50;1.00;;;;;30.58;21.26;68677.63;4979136;28;45413;-87
2023/03/16 12:18:14;;;;;;;;;1.00;1.00;;;;;30.13;20.85;68819.59;4979417;28;45387;-88
2023/03/16 12:20:49;;;;;;;;;3.00;1.00;;;;;29.46;21.27;68897.78;4961623;28;45683;-87
2023/03/16 12:23:28;;;;;;;;;2.00;2.00;;;;;28.58;21.97;68930.31;4978183;28;45467;-87
2023/03/16 12:25:58;;;;;;;;;1.00;1.00;;;;;28.50;22.06;68931.16;4979455;28;45397;-86
2023/03/16 12:28:27;;;;;;;;;2.50;1.75;;;;;28.05;21.83;68994.00;4978996;28;45399;-86
2023/03/16 12:31:27;;;;;;;;;1.00;1.00;;;;;27.83;22.10;69025.03;4979361;28;45458;-86
2023/03/16 12:34:15;;;;;;;;;1.00;1.00;;;;;27.45;23.06;69030.16;4979215;28;45380;-86
2023/03/16 12:37:12;;;;;;;;;0.50;0.50;;;;;27.26;23.41;69022.44;4963371;28;45369;-86
2023/03/16 12:39:50;;;;;;;;;1.25;1.25;;;;;27.26;22.97;69038.16;4979283;28;46293;-87
2023/03/16 12:42:28;;;;;;;;;2.50;1.00;;;;;26.94;23.04;69093.72;4959215;28;45373;-89
2023/03/16 12:44:59;;;;;;;;;1.00;1.00;;;;;26.91;23.38;69090.16;4959752;28;45439;-90
2023/03/16 12:48:19;;;;;;;;;1.25;1.25;;;;;26.74;23.70;69051.63;4960073;28;45488;-88
2023/03/16 12:50:54;;;;;;;;;1.00;1.00;;;;;26.63;23.88;69047.31;4899266;29;48308;-88
2023/03/16 12:53:43;;;;;;;;;1.25;1.25;;;;;26.78;23.42;69123.59;4899319;29;45389;-87
2023/03/16 12:56:12;;;;;;;;;1.50;1.00;;;;;26.57;22.97;69074.88;4899013;29;45409;-87
2023/03/16 12:58:49;;;;;;;;;1.00;1.00;;;;;26.42;23.61;69144.47;4899742;28;45502;-86
2023/03/16 13:01:18;;;;;;;;;1.00;1.00;;;;;26.19;23.51;69083.13;4899043;29;47527;-85
2023/03/16 13:03:48;;;;;;;;;1.50;1.25;;;;;26.08;23.40;69103.22;4899684;28;45748;-86
2023/03/16 13:06:22;;;;;;;;;0.25;0.25;;;;;25.81;24.00;69144.91;4898745;29;45408;-85
2023/03/16 13:08:53;;;;;;;;;2.00;2.00;;;;;25.72;24.28;69126.09;4899181;29;45471;-88
2023/03/16 13:11:19;;;;;;;;;2.00;1.00;;;;;25.61;24.25;69165.09;4898835;29;46569;-88
2023/03/16 13:13:51;;;;;;;;;1.00;1.00;;;;;25.63;24.15;69105.19;4883488;28;45588;-87
2023/03/16 13:16:29;;;;;;;;;0.00;0.00;;;;;25.61;24.25;69132.59;4883562;29;45388;-87
2023/03/16 13:18:55;;;;;;;;;0.00;0.00;;;;;25.69;24.08;69142.09;4899493;29;45384;-86
2023/03/16 13:21:34;;;;;;;;;0.00;0.00;;;;;25.58;24.26;69095.97;4898943;29;45379;-88
2023/03/16 13:24:25;;;;;;;;;1.00;1.00;;;;;25.44;24.04;69112.44;4914351;28;45488;-88
2023/03/16 13:26:56;;;;;;;;;0.00;0.00;;;;;25.39;24.18;69147.72;4977706;28;45398;-89
2023/03/16 13:29:22;;;;;;;;;1.00;1.00;;;;;25.38;24.50;69124.88;4961056;28;45391;-88
2023/03/16 13:31:50;;;;;;;;;1.00;0.25;;;;;25.19;24.25;69124.56;4978208;28;46224;-87
2023/03/16 13:34:28;;;;;;;;;0.00;0.00;;;;;24.99;24.47;69176.56;4978416;28;45333;-87
2023/03/16 13:36:56;;;;;;;;;0.75;0.75;;;;;24.69;24.95;69160.47;4978218;28;45406;-87
2023/03/16 13:39:26;;;;;;;;;0.25;0.25;;;;;24.44;25.08;69175.16;4978551;28;45367;-88
2023/03/16 13:41:59;;;;;;;;;0.50;0.00;;;;;23.97;25.18;69112.41;4960629;28;46190;-88
2023/03/16 13:44:25;;;;;;;;;0.00;0.00;;;;;24.24;25.12;69122.28;4978325;28;45455;-87
2023/03/16 13:46:50;;;;;;;;;1.25;1.00;;;;;24.07;25.25;69118.91;4978279;28;45395;-88
2023/03/16 13:49:17;;;;;;;;;0.00;0.00;;;;;23.92;24.96;69117.88;4959525;28;45613;-88
2023/03/16 13:51:44;;;;;;;;;3.50;1.25;;;;;23.17;25.98;69060.81;4978294;28;45977;-88
2023/03/16 13:54:20;;;;;;;;;1.00;1.00;;;;;23.38;25.89;69125.66;4977818;28;45440;-88
2023/03/16 13:56:46;;;;;;;;;0.75;0.75;;;;;22.80;25.86;69068.69;4960286;28;45360;-88
2023/03/16 13:59:12;;;;;;;;;4.00;1.00;;;;;22.77;26.27;69043.56;4976946;28;45348;-89
2023/03/16 14:01:37;;;;;;;;;0.00;0.00;;;;;22.83;26.52;69166.03;4981124;28;45449;-87
2023/03/16 14:04:12;;;;;;;;;1.00;1.00;;;;;22.77;26.41;69102.88;4997474;28;46072;-88
2023/03/16 14:06:40;;;;;;;;;1.00;1.00;;;;;22.68;26.59;69095.44;4998012;28;45353;-88
2023/03/16 14:09:13;;;;;;;;;1.00;1.00;;;;;22.49;26.91;69078.25;4981626;28;45358;-87
2023/03/16 14:11:41;;;;;;;;;1.75;1.75;;;;;22.41;26.62;69079.53;4977732;28;46241;-88
2023/03/16 14:14:23;;;;;;;;;1.00;1.00;;;;;22.31;26.91;69141.59;4977700;28;45527;-88
2023/03/16 14:16:48;;;;;;;;;1.00;1.00;;;;;22.12;27.01;69184.19;4977940;28;45476;-88
2023/03/16 14:19:23;;;;;;;;;1.75;1.00;;;;;21.93;27.00;69102.91;4977955;28;45508;-88
2023/03/16 14:21:49;;;;;;;;;2.50;1.00;;;;;21.91;27.98;69062.84;4976794;28;46522;-88
2023/03/16 14:24:27;;;;;;;;;1.00;1.00;;;;;21.87;27.43;69054.81;4983594;28;45447;-89
2023/03/16 14:26:52;;;;;;;;;1.25;1.25;;;;;21.91;28.24;69124.78;4982288;28;45399;-88
2023/03/16 14:29:31;;;;;;;;;2.00;2.00;;;;;22.02;27.76;69104.38;4977731;28;45398;-88
2023/03/16 14:31:58;;;;;;;;;1.25;1.25;;;;;22.04;27.62;69112.13;4976896;28;46227;-89
2023/03/16 14:34:38;;;;;;;;;1.00;1.00;;;;;21.53;27.72;69036.50;4977301;28;45449;-89
2023/03/16 14:37:12;;;;;;;;;1.25;1.25;;;;;22.04;27.73;69106.75;4976824;28;45285;-89
2023/03/16 14:39:41;;;;;;;;;1.75;1.75;;;;;22.02;28.18;69088.78;4960326;28;45525;-89
2023/03/16 14:42:18;;;;;;;;;1.50;1.00;;;;;21.85;28.69;69057.81;4960730;28;47277;-89
2023/03/16 14:44:45;;;;;;;;;1.00;1.00;;;;;22.03;28.41;69060.38;4977127;28;45425;-91
2023/03/16 14:47:23;;;;;;;;;1.00;1.00;;;;;21.96;28.53;69078.38;4973258;28;45834;-87
2023/03/16 14:49:48;;;;;;;;;0.25;0.25;;;;;21.99;28.43;69084.66;4964762;28;46141;-92
2023/03/16 14:52:30;;;;;;;;;1.00;1.00;;;;;21.67;27.88;69040.28;4975203;28;45415;-91
2023/03/16 14:54:55;;;;;;;;;1.50;0.75;;;;;21.38;28.29;69003.13;4951477;28;46192;-93
2023/03/16 14:57:21;;;;;;;;;2.00;1.00;;;;;21.68;28.52;69111.47;4976471;28;45363;-91
2023/03/16 14:59:47;;;;;;;;;2.00;1.00;;;;;21.48;28.59;69072.13;4976963;28;45344;-91
2023/03/16 15:02:18;;;;;;;;;2.00;0.75;;;;;21.78;28.66;69087.19;4976104;28;45421;-91
2023/03/16 15:04:44;;;;;;;;;0.50;0.50;;;;;21.64;28.60;69081.88;4974536;28;45501;-88
2023/03/16 15:07:23;;;;;;;;;1.00;1.00;;;;;21.49;28.43;69057.16;4974531;28;45388;-89
2023/03/16 15:09:50;;;;;;;;;1.00;1.00;;;;;21.41;28.96;69053.03;4976462;28;45645;-86
2023/03/16 15:12:18;;;;;;;;;0.75;0.75;;;;;21.14;29.18;69063.91;4975014;28;46028;-88
2023/03/16 15:17:28;;;;;;;;;1.25;0.75;;;;;21.15;29.28;69063.03;4973858;28;45404;-87
2023/03/16 15:19:53;;;;;;;;;1.75;1.00;;;;;21.05;30.04;69024.84;4975046;28;45399;-87
2023/03/16 15:22:27;;;;;;;;;1.00;1.00;;;;;20.96;29.94;69061.94;4958228;28;48268;-87
2023/03/16 15:24:53;;;;;;;;;0.50;0.50;;;;;20.61;29.75;68997.88;4974362;28;45615;-86
2023/03/16 15:27:22;;;;;;;;;1.00;1.00;;;;;20.77;30.01;69005.56;4976025;28;45388;-86
2023/03/16 15:29:47;;;;;;;;;1.00;1.00;;;;;20.69;29.73;68992.78;4975673;28;45386;-86
2023/03/16 15:32:17;;;;;;;;;1.00;1.00;;;;;20.64;30.26;69041.75;4975814;28;46304;-86
2023/03/16 15:34:45;;;;;;;;;1.75;1.00;;;;;20.60;30.43;69028.34;4975326;28;45461;-86
2023/03/16 15:37:15;;;;;;;;;1.00;1.00;;;;;20.60;31.20;69039.69;4969696;28;45467;-85
2023/03/16 15:39:42;;;;;;;;;0.00;0.00;;;;;20.60;31.34;69031.66;4974282;28;45511;-86
2023/03/16 15:42:13;;;;;;;;;1.00;1.00;;;;;20.58;31.25;69055.50;4975001;28;45479;-86
2023/03/16 15:44:39;;;;;;;;;2.00;2.00;;;;;20.54;31.66;69029.84;4974282;28;45430;-86
2023/03/16 15:47:05;;;;;;;;;1.00;1.00;;;;;20.03;31.63;68954.25;4974797;28;46468;-86
2023/03/16 15:49:30;;;;;;;;;2.00;2.00;;;;;20.45;32.26;69008.41;4977695;28;45540;-86
2023/03/16 15:51:55;;;;;;;;;1.00;1.00;;;;;20.33;32.43;69004.88;4977840;28;45499;-86
2023/03/16 15:54:22;;;;;;;;;1.75;1.00;;;;;20.01;32.28;68962.63;4979092;28;45450;-86
2023/03/16 15:56:47;;;;;;;;;1.00;1.00;;;;;20.06;33.17;69035.09;4979118;28;45454;-86
2023/03/16 15:59:17;;;;;;;;;1.00;1.00;;;;;20.22;32.72;69022.50;4979042;28;45553;-85
2023/03/16 16:01:46;;;;;;;;;1.25;1.25;;;;;20.25;32.73;69049.66;4978818;28;45424;-86
2023/03/16 16:04:15;;;;;;;;;0.00;0.00;;;;;20.19;33.20;68994.78;4978535;28;45360;-87
2023/03/16 16:06:40;;;;;;;;;2.00;2.00;;;;;20.14;33.51;69020.47;4979016;28;45394;-86
2023/03/16 16:09:06;;;;;;;;;1.25;1.25;;;;;19.60;33.78;69054.56;4979167;28;45419;-87
2023/03/16 16:11:31;;;;;;;;;1.00;1.00;;;;;20.05;33.90;69058.66;4978986;28;46099;-89
2023/03/16 16:13:58;;;;;;;;;0.00;0.00;;;;;20.00;33.86;69052.72;4977358;28;45348;-87
2023/03/16 16:16:29;;;;;;;;;1.00;1.00;;;;;19.43;33.63;69050.97;4978688;28;45471;-93
2023/03/16 16:18:55;;;;;;;;;1.67;1.67;;;;;19.87;33.95;68976.09;4978172;28;45488;-91
2023/03/16 16:21:27;;;;;;;;;1.00;1.00;;;;;19.78;34.26;69006.25;4977758;28;45574;-92
2023/03/16 16:23:54;;;;;;;;;2.00;1.00;;;;;19.74;33.97;69027.72;4978562;28;45359;-91
2023/03/16 16:26:33;;;;;;;;;1.00;1.00;;;;;19.69;33.84;69030.41;4978566;28;45403;-91
2023/03/16 16:28:59;;;;;;;;;2.00;2.00;;;;;19.31;34.85;69021.19;4978602;28;45335;-92
2023/03/16 16:31:27;;;;;;;;;3.00;1.67;;;;;19.61;34.24;69039.63;4961322;28;47530;-92
2023/03/16 16:33:53;;;;;;;;;1.50;1.50;;;;;19.28;34.34;68963.41;4944859;28;45429;-92
2023/03/16 16:36:19;;;;;;;;;2.00;2.00;;;;;19.21;34.61;68953.00;4978408;28;45805;-92
2023/03/16 16:38:49;;;;;;;;;1.00;1.00;;;;;19.52;34.80;69002.69;4978966;28;45453;-93
2023/03/16 16:41:36;;;;;;;;;1.00;1.00;;;;;19.52;34.57;69013.41;4974814;28;46160;-92
2023/03/16 16:44:07;;;;;;;;;1.00;1.00;;;;;19.50;34.46;69000.31;4952731;28;46280;-92
2023/03/16 16:46:40;;;;;;;;;2.67;1.00;;;;;19.27;34.41;68962.81;4971315;28;45455;-92
2023/03/16 16:49:21;;;;;;;;;1.00;1.00;;;;;19.40;34.62;68956.81;4976658;28;46651;-92
2023/03/16 16:51:46;;;;;;;;;1.75;1.00;;;;;19.14;35.30;68992.94;4975659;28;45935;-91
2023/03/16 16:54:19;;;;;;;;;2.00;2.00;;;;;19.18;35.26;69121.00;4975481;28;45366;-90
2023/03/16 16:56:45;;;;;;;;;1.00;1.00;;;;;19.28;35.04;68996.19;4955948;28;45536;-96
2023/03/16 16:59:19;;;;;;;;;1.00;1.00;;;;;19.23;35.66;68984.88;4959414;28;45507;-88
2023/03/16 17:01:52;;;;;;;;;1.33;1.33;;;;;19.03;35.01;68979.81;4971010;28;46029;-88
2023/03/16 17:04:24;;;;;;;;;0.75;0.75;;;;;19.01;35.19;68923.84;4974146;28;46297;-88
2023/03/16 17:06:54;;;;;;;;;1.00;1.00;;;;;19.13;35.32;68972.97;4954797;28;45492;-88
2023/03/16 17:09:20;;;;;;;;;1.00;0.75;;;;;19.10;35.09;68937.22;4975502;28;45542;-88
2023/03/16 17:11:47;;;;;;;;;1.00;1.00;;;;;19.07;35.55;68971.78;4976254;28;45456;-88
2023/03/16 17:14:20;;;;;;;;;1.00;1.00;;;;;19.06;34.92;68981.31;4976525;28;45455;-87
2023/03/16 17:16:47;;;;;;;;;1.00;1.00;;;;;18.95;35.68;68946.78;4974835;28;45451;-87
2023/03/16 17:19:22;;;;;;;;;4.00;1.33;;;;;19.07;35.36;68998.59;4975077;28;46111;-86
2023/03/16 17:21:51;;;;;;;;;0.00;0.00;;;;;19.04;35.62;69005.75;4970570;28;46638;-87
2023/03/16 17:24:16;;;;;;;;;1.00;1.00;;;;;19.00;35.50;68957.50;4963923;28;45472;-86
2023/03/16 17:26:44;;;;;;;;;3.00;2.00;;;;;18.93;35.50;68973.88;4976306;28;45701;-88
2023/03/16 17:29:16;;;;;;;;;1.00;1.00;;;;;18.85;35.58;68951.56;4977218;28;45454;-87
2023/03/16 17:31:41;;;;;;;;;1.00;1.00;;;;;18.75;35.77;68948.28;4975948;28;45463;-88
2023/03/16 17:34:33;;;;;;;;;6.67;6.00;;;;;18.78;35.34;68940.56;4956023;28;45722;-89
2023/03/16 17:37:00;;;;;;;;;12.67;12.67;;;;;18.46;35.21;68927.75;4971657;28;45663;-88
2023/03/16 17:39:33;;;;;;;;;22.67;20.33;;;;;18.72;35.97;68912.56;4973376;28;45414;-90
2023/03/16 17:42:01;;;;;;;;;14.00;12.00;;;;;18.70;35.67;68909.59;4976558;28;45665;-89
2023/03/16 17:44:32;;;;;;;;;10.33;9.00;;;;;18.67;35.67;68928.03;4973748;28;45448;-88
2023/03/16 17:46:57;;;;;;;;;13.00;10.00;;;;;18.67;36.24;68908.69;4974745;28;45603;-88
2023/03/16 17:49:27;;;;;;;;;11.33;10.67;;;;;18.58;35.93;68956.91;4982888;28;45564;-89
2023/03/16 17:51:53;;;;;;;;;11.67;11.67;;;;;18.41;36.19;68873.59;4972661;28;46415;-88
2023/03/16 17:54:19;;;;;;;;;14.33;11.67;;;;;18.52;36.21;68924.19;4973534;28;45598;-88
2023/03/16 17:56:48;;;;;;;;;13.00;11.00;;;;;18.45;36.35;69047.06;4974915;28;46063;-92
2023/03/16 17:59:19;;;;;;;;;4.67;3.00;;;;;18.30;36.08;68920.00;4975915;28;45504;-88